createdAt,value
2019-02-18T00:01:29.124Z,21.50
2019-02-18T00:03:59.072Z,24.30
2019-02-18T00:06:29.040Z,18.03
2019-02-18T00:08:59.038Z,18.67
2019-02-18T00:11:29.018Z,19.17
2019-02-18T00:13:58.996Z,18.30
2019-02-18T00:16:29.810Z,18.90
2019-02-18T00:18:59.880Z,18.17
2019-02-18T00:21:29.926Z,17.27
2019-02-18T00:23:59.960Z,20.47
2019-02-18T00:26:29.944Z,19.33
2019-02-18T00:28:59.904Z,19.90
2019-02-18T00:31:29.897Z,20.33
2019-02-18T00:33:59.860Z,22.27
2019-02-18T00:36:29.830Z,22.27
2019-02-18T00:38:59.820Z,20.40
2019-02-18T00:41:29.831Z,21.73
2019-02-18T00:43:59.804Z,18.23
2019-02-18T00:46:29.790Z,18.60
2019-02-18T00:48:59.797Z,17.10
2019-02-18T00:51:29.800Z,17.33
2019-02-18T00:53:59.787Z,21.47
2019-02-18T00:56:29.768Z,18.03
2019-02-18T00:58:59.734Z,23.33
2019-02-18T01:01:29.725Z,16.87
2019-02-18T01:03:59.708Z,18.23
2019-02-18T01:06:29.830Z,17.80
2019-02-18T01:08:59.815Z,17.47
2019-02-18T01:11:29.784Z,19.97
2019-02-18T01:14:00.539Z,19.37
2019-02-18T01:16:30.775Z,19.17
2019-02-18T01:19:00.799Z,17.97
2019-02-18T01:21:30.828Z,18.00
2019-02-18T01:24:00.873Z,21.97
2019-02-18T01:26:30.893Z,17.87
2019-02-18T01:29:00.937Z,16.03
2019-02-18T01:31:30.885Z,16.83
2019-02-18T01:34:00.924Z,19.33
2019-02-18T01:36:30.973Z,18.37
2019-02-18T01:39:01.021Z,18.57
2019-02-18T01:41:31.070Z,15.60
2019-02-18T01:44:01.101Z,19.10
2019-02-18T01:46:31.138Z,13.07
2019-02-18T01:49:01.190Z,18.73
2019-02-18T01:51:31.231Z,18.50
2019-02-18T01:54:01.350Z,15.90
2019-02-18T01:56:31.385Z,18.50
2019-02-18T01:59:02.825Z,18.77
2019-02-18T02:01:32.849Z,15.90
2019-02-18T02:04:03.054Z,17.77
2019-02-18T02:06:33.097Z,16.13
2019-02-18T02:09:03.136Z,16.37
2019-02-18T02:11:33.105Z,17.50
2019-02-18T02:14:03.143Z,20.90
2019-02-18T02:16:33.179Z,21.20
2019-02-18T02:19:03.511Z,14.17
2019-02-18T02:21:33.553Z,15.73
2019-02-18T02:24:04.489Z,20.03
2019-02-18T02:26:34.517Z,15.73
2019-02-18T02:29:04.525Z,17.97
2019-02-18T02:31:34.774Z,13.53
2019-02-18T02:34:04.821Z,18.40
2019-02-18T02:36:34.855Z,17.13
2019-02-18T02:39:06.085Z,22.30
2019-02-18T02:41:36.109Z,18.60
2019-02-18T02:44:06.083Z,17.90
2019-02-18T02:46:36.107Z,16.80
2019-02-18T02:49:06.169Z,18.70
2019-02-18T02:51:36.109Z,14.87
2019-02-18T02:54:06.067Z,13.67
2019-02-18T02:56:37.375Z,13.17
2019-02-18T02:59:09.067Z,14.80
2019-02-18T03:01:39.029Z,13.80
2019-02-18T03:04:09.064Z,15.13
2019-02-18T03:06:39.079Z,16.03
2019-02-18T03:09:10.138Z,10.53
2019-02-18T03:11:40.098Z,14.80
2019-02-18T03:14:10.083Z,16.07
2019-02-18T03:16:40.031Z,16.73
2019-02-18T03:19:10.077Z,15.87
2019-02-18T03:21:40.028Z,15.53
2019-02-18T03:24:10.009Z,13.97
2019-02-18T03:26:39.951Z,15.10
2019-02-18T03:29:39.128Z,12.07
2019-02-18T03:32:09.108Z,15.93
2019-02-18T03:34:42.131Z,13.00
2019-02-18T03:37:12.180Z,11.87
2019-02-18T03:39:42.161Z,14.60
2019-02-18T03:42:12.181Z,13.57
2019-02-18T03:44:42.173Z,13.20
2019-02-18T03:47:12.128Z,12.33
2019-02-18T03:49:42.206Z,11.57
2019-02-18T03:52:12.447Z,12.93
2019-02-18T03:54:42.473Z,17.47
2019-02-18T03:57:12.551Z,15.63
2019-02-18T03:59:42.577Z,9.83
2019-02-18T04:02:12.572Z,12.30
2019-02-18T04:04:42.586Z,10.70
2019-02-18T04:07:12.647Z,11.03
2019-02-18T04:09:42.667Z,10.43
2019-02-18T04:12:12.655Z,11.47
2019-02-18T04:14:42.617Z,13.80
2019-02-18T04:17:12.597Z,12.37
2019-02-18T04:19:42.579Z,12.27
2019-02-18T04:22:12.557Z,13.33
2019-02-18T04:24:42.591Z,13.00
2019-02-18T04:27:12.605Z,15.50
2019-02-18T04:29:42.591Z,11.47
2019-02-18T04:32:12.637Z,10.80
2019-02-18T04:34:42.647Z,12.97
2019-02-18T04:37:12.622Z,16.20
2019-02-18T04:39:42.630Z,12.50
2019-02-18T04:42:12.578Z,11.10
2019-02-18T04:44:42.552Z,11.83
2019-02-18T04:47:12.508Z,12.23
2019-02-18T04:49:42.513Z,12.17
2019-02-18T04:52:12.495Z,11.67
2019-02-18T04:54:42.565Z,11.53
2019-02-18T04:57:12.509Z,10.27
2019-02-18T04:59:42.508Z,12.60
2019-02-18T05:02:12.465Z,10.53
2019-02-18T05:04:42.446Z,10.40
2019-02-18T05:07:12.431Z,10.20
2019-02-18T05:09:42.373Z,10.40
2019-02-18T05:12:12.321Z,12.83
2019-02-18T05:14:42.279Z,15.30
2019-02-18T05:17:12.255Z,10.20
2019-02-18T05:19:42.199Z,10.13
2019-02-18T05:22:12.170Z,14.43
2019-02-18T05:24:42.159Z,12.87
2019-02-18T05:27:12.112Z,14.83
2019-02-18T05:29:42.151Z,11.20
2019-02-18T05:32:12.134Z,14.50
2019-02-18T05:34:51.530Z,14.53
2019-02-18T05:37:21.589Z,14.03
2019-02-18T05:39:51.533Z,11.13
2019-02-18T05:42:21.500Z,13.27
2019-02-18T05:44:51.676Z,12.20
2019-02-18T05:47:21.652Z,16.20
2019-02-18T05:49:51.641Z,12.40
2019-02-18T05:52:21.614Z,13.63
2019-02-18T05:54:51.581Z,11.90
2019-02-18T05:57:22.921Z,13.67
2019-02-18T05:59:53.208Z,12.60
2019-02-18T06:02:23.164Z,14.07
2019-02-18T06:04:53.157Z,14.73
2019-02-18T06:07:23.094Z,14.03
2019-02-18T06:09:53.068Z,13.57
2019-02-18T06:12:23.278Z,15.10
2019-02-18T06:14:53.324Z,11.90
2019-02-18T06:17:23.428Z,14.67
2019-02-18T06:19:53.534Z,12.87
2019-02-18T06:22:23.524Z,13.70
2019-02-18T06:24:53.534Z,17.33
2019-02-18T06:27:23.524Z,12.50
2019-02-18T06:29:53.544Z,13.10
2019-02-18T06:32:23.519Z,13.17
2019-02-18T06:34:53.539Z,15.07
2019-02-18T06:37:23.536Z,12.30
2019-02-18T06:39:53.533Z,13.53
2019-02-18T06:42:23.513Z,13.03
2019-02-18T06:45:12.002Z,10.23
2019-02-18T06:47:42.067Z,11.27
2019-02-18T06:50:12.038Z,15.83
2019-02-18T06:52:41.999Z,14.20
2019-02-18T06:55:12.002Z,12.20
2019-02-18T06:58:01.431Z,13.93
2019-02-18T07:00:49.396Z,15.27
2019-02-18T07:03:29.777Z,12.63
2019-02-18T07:06:04.720Z,11.87
2019-02-18T07:08:43.693Z,13.70
2019-02-18T07:11:32.822Z,11.37
2019-02-18T07:14:04.317Z,17.17
2019-02-18T07:16:45.101Z,13.33
2019-02-18T07:19:15.131Z,11.17
2019-02-18T07:21:45.173Z,15.77
2019-02-18T07:24:15.479Z,12.57
2019-02-18T07:26:45.538Z,14.10
2019-02-18T07:29:15.547Z,14.63
2019-02-18T07:31:45.513Z,14.27
2019-02-18T07:34:15.491Z,13.67
2019-02-18T07:36:45.519Z,12.50
2019-02-18T07:39:15.565Z,12.23
2019-02-18T07:41:45.545Z,12.53
2019-02-18T07:44:15.525Z,14.70
2019-02-18T07:46:45.517Z,12.07
2019-02-18T07:49:15.537Z,14.10
2019-02-18T07:51:45.534Z,13.13
2019-02-18T07:54:22.107Z,13.53
2019-02-18T07:56:52.103Z,12.07
2019-02-18T07:59:22.111Z,13.33
2019-02-18T08:01:58.992Z,12.60
2019-02-18T08:04:29.003Z,11.17
2019-02-18T08:06:58.992Z,11.97
2019-02-18T08:09:29.009Z,11.87
2019-02-18T08:11:58.991Z,12.30
2019-02-18T08:14:28.996Z,14.37
2019-02-18T08:16:59.064Z,17.60
2019-02-18T08:19:29.071Z,11.30
2019-02-18T08:21:59.433Z,13.80
2019-02-18T08:24:29.513Z,14.40
2019-02-18T08:27:01.029Z,11.33
2019-02-18T08:29:32.793Z,11.33
2019-02-18T08:32:02.890Z,16.55
2019-02-18T08:34:33.019Z,13.93
2019-02-18T08:37:03.080Z,11.53
2019-02-18T08:39:33.169Z,10.80
2019-02-18T08:42:03.219Z,12.73
2019-02-18T08:44:33.325Z,9.23
2019-02-18T08:47:03.297Z,14.43
2019-02-18T08:49:33.323Z,11.43
2019-02-18T08:52:03.383Z,13.57
2019-02-18T08:54:33.471Z,14.20
2019-02-18T08:57:03.519Z,10.50
2019-02-18T08:59:33.619Z,13.77
2019-02-18T09:02:03.685Z,12.10
2019-02-18T09:04:33.778Z,12.37
2019-02-18T09:07:03.960Z,9.30
2019-02-18T09:09:34.059Z,12.60
2019-02-18T09:12:04.050Z,10.90
2019-02-18T09:14:34.072Z,12.30
2019-02-18T09:17:04.064Z,12.10
2019-02-18T09:19:34.135Z,11.27
2019-02-18T09:22:23.149Z,9.87
2019-02-18T09:25:02.298Z,10.93
2019-02-18T09:27:32.310Z,10.57
2019-02-18T09:30:02.368Z,11.10
2019-02-18T09:32:32.446Z,11.43
2019-02-18T09:35:02.536Z,10.83
2019-02-18T09:37:32.628Z,9.77
2019-02-18T09:40:02.708Z,9.73
2019-02-18T09:42:32.762Z,8.57
2019-02-18T09:45:02.863Z,10.03
2019-02-18T09:47:32.915Z,10.43
2019-02-18T09:50:03.034Z,9.97
2019-02-18T09:52:33.044Z,11.13
2019-02-18T09:55:03.120Z,10.10
2019-02-18T09:57:33.196Z,8.67
2019-02-18T10:00:03.274Z,11.30
2019-02-18T10:02:33.364Z,8.23
2019-02-18T10:05:03.428Z,9.07
2019-02-18T10:11:08.829Z,10.80
2019-02-18T10:13:38.963Z,9.67
2019-02-18T10:16:09.072Z,7.87
2019-02-18T10:18:39.152Z,11.70
2019-02-18T10:21:09.236Z,11.47
2019-02-18T10:23:39.328Z,10.27
2019-02-18T10:26:09.453Z,13.73
2019-02-18T10:28:39.574Z,8.27
2019-02-18T10:31:09.669Z,12.20
2019-02-18T10:33:39.738Z,8.30
2019-02-18T10:36:09.858Z,9.93
2019-02-18T10:38:40.302Z,10.07
2019-02-18T10:41:10.565Z,12.43
2019-02-18T10:43:40.650Z,11.23
2019-02-18T10:46:10.747Z,10.37
2019-02-18T10:48:40.853Z,8.70
2019-02-18T10:51:11.053Z,12.77
2019-02-18T10:53:41.087Z,9.63
2019-02-18T10:56:11.130Z,13.17
2019-02-18T10:58:41.250Z,11.03
2019-02-18T11:01:11.252Z,9.53
2019-02-18T11:03:41.298Z,7.53
2019-02-18T11:06:11.326Z,10.23
2019-02-18T11:08:41.403Z,9.30
2019-02-18T11:11:17.100Z,11.80
2019-02-18T11:13:43.379Z,11.17
2019-02-18T11:16:13.462Z,9.57
2019-02-18T11:18:43.754Z,8.97
2019-02-18T11:21:14.006Z,10.60
2019-02-18T11:23:44.098Z,11.10
2019-02-18T11:26:14.192Z,13.83
2019-02-18T11:28:44.317Z,10.63
2019-02-18T11:31:14.437Z,14.40
2019-02-18T11:33:44.951Z,9.10
2019-02-18T11:36:15.059Z,11.73
2019-02-18T11:38:45.170Z,10.20
2019-02-18T11:41:15.200Z,12.23
2019-02-18T11:43:45.244Z,12.67
2019-02-18T11:46:15.260Z,10.93
2019-02-18T11:48:45.313Z,11.53
2019-02-18T11:51:15.369Z,12.57
2019-02-18T11:53:45.425Z,15.43
2019-02-18T11:56:15.505Z,9.90
2019-02-18T11:58:45.557Z,11.30
2019-02-18T12:01:15.665Z,11.43
2019-02-18T12:03:45.732Z,8.97
2019-02-18T12:06:15.830Z,10.40
2019-02-18T12:08:45.852Z,10.90
2019-02-18T12:11:15.873Z,11.73
2019-02-18T12:13:45.913Z,10.03
2019-02-18T12:16:15.936Z,10.87
2019-02-18T12:18:45.974Z,10.67
2019-02-18T12:21:16.146Z,9.93
2019-02-18T12:23:46.179Z,11.20
2019-02-18T12:26:16.186Z,12.17
2019-02-18T12:28:46.235Z,9.97
2019-02-18T12:31:16.322Z,9.13
2019-02-18T12:33:46.445Z,10.67
2019-02-18T12:36:16.463Z,9.40
2019-02-18T12:38:46.501Z,9.50
2019-02-18T12:41:16.588Z,8.67
2019-02-18T12:43:47.014Z,11.07
2019-02-18T12:46:16.998Z,9.20
2019-02-18T12:48:47.048Z,10.03
2019-02-18T12:51:17.107Z,9.90
2019-02-18T12:53:47.155Z,9.67
2019-02-18T12:56:17.211Z,8.67
2019-02-18T12:58:54.475Z,11.20
2019-02-18T13:01:19.260Z,13.63
2019-02-18T13:03:49.287Z,12.53
2019-02-18T13:06:19.373Z,10.93
2019-02-18T13:08:49.441Z,7.83
2019-02-18T13:11:19.507Z,10.27
2019-02-18T13:13:49.528Z,13.17
2019-02-18T13:16:19.618Z,10.77
2019-02-18T13:18:49.652Z,11.90
2019-02-18T13:21:19.703Z,9.40
2019-02-18T13:23:49.733Z,13.53
2019-02-18T13:26:19.762Z,10.50
2019-02-18T13:28:49.867Z,13.37
2019-02-18T13:31:19.912Z,11.93
2019-02-18T13:33:49.941Z,10.33
2019-02-18T13:36:20.009Z,9.63
2019-02-18T13:38:50.071Z,10.77
2019-02-18T13:41:20.119Z,11.53
2019-02-18T13:43:50.182Z,9.83
2019-02-18T13:46:20.241Z,12.03
2019-02-18T13:48:50.345Z,10.97
2019-02-18T13:51:24.276Z,10.53
2019-02-18T13:53:52.241Z,9.77
2019-02-18T13:56:22.319Z,8.83
2019-02-18T13:58:52.710Z,10.47
2019-02-18T14:01:22.959Z,9.50
2019-02-18T14:03:53.097Z,9.50
2019-02-18T14:06:23.146Z,10.80
2019-02-18T14:08:53.172Z,9.27
2019-02-18T14:11:23.214Z,9.97
2019-02-18T14:13:53.235Z,9.97
2019-02-18T14:16:23.306Z,10.73
2019-02-18T14:18:53.341Z,8.90
2019-02-18T14:21:23.381Z,9.20
2019-02-18T14:23:53.412Z,10.80
2019-02-18T14:26:23.657Z,8.80
2019-02-18T14:28:53.683Z,10.07
2019-02-18T14:31:23.741Z,10.50
2019-02-18T14:33:53.771Z,9.23
2019-02-18T14:36:23.835Z,9.07
2019-02-18T14:38:53.846Z,12.07
2019-02-18T14:41:24.101Z,11.47
2019-02-18T14:43:54.091Z,9.83
2019-02-18T14:46:24.129Z,12.50
2019-02-18T14:48:54.199Z,9.80
2019-02-18T14:51:24.254Z,9.30
2019-02-18T14:53:54.363Z,10.60
2019-02-18T14:56:24.373Z,10.07
2019-02-18T14:58:54.493Z,9.47
2019-02-18T15:01:24.521Z,9.10
2019-02-18T15:03:54.541Z,10.03
2019-02-18T15:06:24.666Z,13.73
2019-02-18T15:08:55.091Z,8.33
2019-02-18T15:11:25.189Z,8.60
2019-02-18T15:13:55.237Z,15.00
2019-02-18T15:16:25.288Z,10.43
2019-02-18T15:18:55.395Z,10.10
2019-02-18T15:21:25.416Z,10.73
2019-02-18T15:23:55.462Z,9.87
2019-02-18T15:26:25.479Z,9.33
2019-02-18T15:28:55.597Z,7.30
2019-02-18T15:31:25.605Z,12.27
2019-02-18T15:33:55.671Z,10.90
2019-02-18T15:36:26.006Z,9.43
2019-02-18T15:38:56.091Z,8.60
2019-02-18T15:41:26.115Z,8.33
2019-02-18T15:43:56.154Z,9.97
2019-02-18T15:46:26.226Z,9.20
2019-02-18T15:48:56.306Z,7.67
2019-02-18T15:51:26.407Z,12.93
2019-02-18T15:53:56.487Z,13.20
2019-02-18T15:56:26.547Z,9.47
2019-02-18T15:58:56.621Z,9.30
2019-02-18T16:01:26.652Z,8.60
2019-02-18T16:03:56.954Z,8.93
2019-02-18T16:06:27.119Z,7.33
2019-02-18T16:08:57.140Z,9.20
2019-02-18T16:11:27.203Z,7.70
2019-02-18T16:13:57.271Z,8.57
2019-02-18T16:16:27.407Z,8.10
2019-02-18T16:18:57.722Z,11.33
2019-02-18T16:21:27.864Z,10.13
2019-02-18T16:23:57.976Z,9.13
2019-02-18T16:26:28.082Z,8.80
2019-02-18T16:28:58.188Z,8.70
2019-02-18T16:31:30.418Z,10.50
2019-02-18T16:34:00.044Z,9.80
2019-02-18T16:36:30.246Z,13.97
2019-02-18T16:39:00.415Z,10.53
2019-02-18T16:41:30.532Z,10.40
2019-02-18T16:44:00.751Z,8.97
2019-02-18T16:46:31.430Z,9.60
2019-02-18T16:49:01.608Z,7.93
2019-02-18T16:51:31.904Z,8.93
2019-02-18T16:54:02.038Z,11.47
2019-02-18T16:56:32.120Z,8.63
2019-02-18T16:59:02.418Z,10.03
2019-02-18T17:01:32.599Z,6.87
2019-02-18T17:04:02.701Z,9.63
2019-02-18T17:06:32.844Z,8.20
2019-02-18T17:09:05.389Z,9.43
2019-02-18T17:11:35.487Z,10.03
2019-02-18T17:14:05.600Z,11.20
2019-02-18T17:16:35.672Z,9.27
2019-02-18T17:19:05.688Z,12.63
2019-02-18T17:21:35.726Z,8.97
2019-02-18T17:24:05.761Z,8.17
2019-02-18T17:26:36.244Z,10.03
2019-02-18T17:29:06.281Z,10.70
2019-02-18T17:31:36.329Z,8.20
2019-02-18T17:34:06.488Z,10.60
2019-02-18T17:36:36.526Z,9.50
2019-02-18T17:39:07.194Z,11.27
2019-02-18T17:41:37.463Z,9.10
2019-02-18T17:44:07.564Z,8.67
2019-02-18T17:46:37.590Z,13.70
2019-02-18T17:49:07.652Z,8.37
2019-02-18T17:51:37.763Z,8.70
2019-02-18T17:54:07.812Z,8.77
2019-02-18T17:56:37.832Z,9.47
2019-02-18T17:59:07.918Z,7.93
2019-02-18T18:01:37.981Z,9.03
2019-02-18T18:04:08.014Z,9.83
2019-02-18T18:06:38.045Z,8.83
2019-02-18T18:09:08.888Z,10.33
2019-02-18T18:11:38.912Z,9.23
2019-02-18T18:14:08.935Z,9.27
2019-02-18T18:16:38.941Z,10.47
2019-02-18T18:19:09.616Z,9.03
2019-02-18T18:21:39.838Z,9.77
2019-02-18T18:24:10.047Z,10.50
2019-02-18T18:26:40.081Z,8.50
2019-02-18T18:29:10.119Z,8.47
2019-02-18T18:31:40.138Z,6.37
2019-02-18T18:34:10.187Z,8.33
2019-02-18T18:36:40.253Z,9.23
2019-02-18T18:39:10.276Z,9.50
2019-02-18T18:41:40.315Z,8.50
2019-02-18T18:44:10.311Z,10.97
2019-02-18T18:46:40.383Z,6.60
2019-02-18T18:49:10.407Z,12.07
2019-02-18T18:51:40.734Z,10.17
2019-02-18T18:54:10.767Z,8.13
2019-02-18T18:56:40.816Z,9.33
2019-02-18T18:59:10.819Z,10.63
2019-02-18T19:01:40.860Z,8.33
2019-02-18T19:04:11.061Z,9.47
2019-02-18T19:06:41.099Z,9.17
2019-02-18T19:09:11.119Z,10.80
2019-02-18T19:11:41.179Z,11.30
2019-02-18T19:14:11.185Z,9.93
2019-02-18T19:16:41.276Z,10.37
2019-02-18T19:19:11.287Z,10.57
2019-02-18T19:21:41.337Z,10.20
2019-02-18T19:24:11.422Z,10.67
2019-02-18T19:26:41.486Z,10.67
2019-02-18T19:29:11.522Z,11.40
2019-02-18T19:31:41.852Z,10.80
2019-02-18T19:34:11.837Z,11.23
2019-02-18T19:36:41.855Z,12.43
2019-02-18T19:39:11.891Z,10.10
2019-02-18T19:41:41.949Z,11.47
2019-02-18T19:44:12.030Z,12.93
2019-02-18T19:46:42.190Z,11.70
2019-02-18T19:49:12.226Z,10.37
2019-02-18T19:51:42.285Z,12.97
2019-02-18T19:54:12.365Z,10.70
2019-02-18T19:56:42.418Z,12.63
2019-02-18T19:59:12.609Z,11.97
2019-02-18T20:01:42.719Z,12.03
2019-02-18T20:04:16.047Z,10.47
2019-02-18T20:06:46.067Z,12.17
2019-02-18T20:09:16.281Z,12.43
2019-02-18T20:11:46.591Z,13.20
2019-02-18T20:14:16.627Z,12.17
2019-02-18T20:16:46.628Z,17.47
2019-02-18T20:19:16.661Z,13.83
2019-02-18T20:21:46.681Z,12.33
2019-02-18T20:24:16.726Z,13.53
2019-02-18T20:26:46.749Z,13.17
2019-02-18T20:29:16.941Z,13.23
2019-02-18T20:31:46.960Z,12.47
2019-02-18T20:34:17.033Z,12.47
2019-02-18T20:36:47.500Z,11.83
2019-02-18T20:39:17.831Z,13.57
2019-02-18T20:41:47.824Z,14.07
2019-02-18T20:44:19.581Z,11.73
2019-02-18T20:46:49.575Z,11.70
2019-02-18T20:49:19.638Z,12.57
2019-02-18T20:51:49.922Z,11.07
2019-02-18T20:54:19.962Z,9.93
2019-02-18T20:56:49.994Z,10.90
2019-02-18T20:59:20.020Z,11.67
2019-02-18T21:01:50.040Z,12.50
2019-02-18T21:04:20.069Z,16.57
2019-02-18T21:06:50.280Z,13.67
2019-02-18T21:09:20.358Z,12.00
2019-02-18T21:11:50.383Z,13.43
2019-02-18T21:14:20.488Z,9.80
2019-02-18T21:16:50.526Z,10.07
2019-02-18T21:19:20.918Z,14.07
2019-02-18T21:21:50.980Z,10.23
2019-02-18T21:24:21.003Z,13.40
2019-02-18T21:26:51.020Z,11.83
2019-02-18T21:29:21.018Z,11.40
2019-02-18T21:31:51.050Z,11.20
2019-02-18T21:34:21.330Z,11.77
2019-02-18T21:36:51.345Z,14.97
2019-02-18T21:39:21.327Z,10.63
2019-02-18T21:41:51.363Z,13.37
2019-02-18T21:44:25.447Z,11.80
2019-02-18T21:46:53.086Z,11.90
2019-02-18T21:49:23.117Z,13.80
2019-02-18T21:51:53.183Z,10.67
2019-02-18T21:54:23.180Z,10.40
2019-02-18T21:56:53.235Z,13.33
2019-02-18T21:59:23.526Z,11.13
2019-02-18T22:01:53.718Z,12.87
2019-02-18T22:04:23.735Z,12.57
2019-02-18T22:06:53.816Z,12.63
2019-02-18T22:09:23.854Z,12.03
2019-02-18T22:11:54.105Z,13.70
2019-02-18T22:14:24.124Z,11.30
2019-02-18T22:16:54.148Z,14.83
2019-02-18T22:19:24.247Z,9.77
2019-02-18T22:21:54.270Z,11.77
2019-02-18T22:24:24.271Z,10.47
2019-02-18T22:26:54.332Z,13.37
2019-02-18T22:29:24.438Z,12.03
2019-02-18T22:31:54.470Z,10.80
2019-02-18T22:34:24.487Z,12.97
2019-02-18T22:36:54.590Z,10.77
2019-02-18T22:39:24.595Z,11.43
2019-02-18T22:41:54.663Z,11.33
2019-02-18T22:44:24.671Z,9.50
2019-02-18T22:46:54.684Z,12.90
2019-02-18T22:49:24.779Z,9.77
2019-02-18T22:51:54.869Z,10.03
2019-02-18T22:54:24.894Z,9.80
2019-02-18T22:56:54.952Z,10.63
2019-02-18T22:59:25.033Z,12.07
2019-02-18T23:01:55.205Z,11.20
2019-02-18T23:04:25.178Z,9.80
2019-02-18T23:06:55.156Z,10.33
2019-02-18T23:09:25.258Z,10.20
2019-02-18T23:11:55.312Z,10.90
2019-02-18T23:14:25.408Z,13.30
2019-02-18T23:16:55.414Z,9.43
2019-02-18T23:19:25.429Z,8.60
2019-02-18T23:21:55.440Z,9.50
2019-02-18T23:24:25.427Z,11.53
2019-02-18T23:26:55.422Z,8.90
2019-02-18T23:29:25.878Z,13.70
2019-02-18T23:31:55.854Z,11.57
2019-02-18T23:34:25.854Z,12.30
2019-02-18T23:36:55.872Z,8.70
2019-02-18T23:39:25.886Z,10.80
2019-02-18T23:41:55.870Z,10.03
2019-02-18T23:44:25.884Z,11.50
2019-02-18T23:46:55.888Z,10.93
2019-02-18T23:49:25.899Z,14.50
2019-02-18T23:51:55.994Z,11.00
2019-02-18T23:54:25.976Z,10.67
2019-02-18T23:56:55.983Z,8.23
2019-02-18T23:59:25.978Z,11.80
